• Join FlightAware (Why Join?)
  • Login
  • US Flag 
02:22AM EST


 

Airport Tracker/Info


-or-


 

Live Flight TrackerFlight Track Log ✈ UAL109 ✈ 11-Jul-2013 ✈ EGPH / EDI - KEWR

Flight Track Log - Related Links

Times and Time Zones

All times are in EDT time to prevent confusion due to time zone crossing. See the UAL109 flight status page for this flight to view local times or setup timezone preferences in your user account.

Time Position Orientation Groundspeed Altitude Reporting Facility
EDT Latitude Longitude Course Direction KTS MPH feet Rate Location/Type
07:07AM 55.9450 -3.3680 264° West 3 3  Level FlightAware
07:08AM 55.9460 -3.3690 331° Northwest 2 2 60 Level FlightAware
07:09AM 55.9460 -3.3680 90° East 2 2 60 Level FlightAware
07:11AM 56.0030 -3.6905 283° West  Level FlightAware Approximate
07:12AM 56.0270 -3.8825 283° West  Level FlightAware Approximate
07:12AM 55.9460 -3.3700 283° West 8 9  Level FlightAware
07:13AM 55.9450 -3.3730 239° Southwest 18 21 180 Level FlightAware
07:13AM 55.9430 -3.3770 228° Southwest 23 26 180 Level FlightAware
07:14AM 55.9420 -3.3800 239° Southwest 22 25 180 Level FlightAware
07:14AM 55.9400 -3.3860 239° Southwest 22 25 240 Level FlightAware
07:15AM 55.9400 -3.3910 270° West 5 6 240 Level FlightAware
07:16AM 55.9400 -3.3900 90° East 1 1 360 Level FlightAware
07:17AM 55.9430 -3.3810 59° Northeast 110 127 540 Level FlightAware
07:18AM 55.9460 -3.3690 66° East 166 191 1,560 Level FlightAware
07:18AM 55.9640 -3.3300 50° Northeast 190 219 1,200 2,460 Climbing FlightAware
07:18AM 55.9720 -3.3200 35° Northeast 189 217 1,700 2,400 Climbing FlightAware
07:19AM 55.9880 -3.2960 40° Northeast 190 219 2,600 1,980 Climbing FlightAware
07:19AM 56.0070 -3.2760 30° Northeast 197 227 3,400 1,560 Climbing FlightAware
07:20AM 56.0375 -3.3038 30° Northeast 244 281 4,100 1,380 Climbing FlightAware UK
07:20AM 56.0320 -3.3030 30° Northeast 235 270 4,100 1,800 Level FlightAware
07:20AM 56.0350 -3.3230 285° West 246 283 4,400 1,800 Climbing FlightAware
07:20AM 56.0340 -3.3560 267° West 264 304 4,900 2,100 Climbing FlightAware
07:21AM 56.0260 -3.4120 256° West 277 319 5,900 2,520 Climbing FlightAware
07:21AM 56.0160 -3.4750 254° West 279 321 7,300 2,640 Climbing FlightAware
07:22AM 56.0070 -3.5380 256° West 284 327 8,500 2,760 Climbing FlightAware
07:22AM 55.9970 -3.6040 255° West 285 328 9,900 2,340 Climbing FlightAware
07:23AM 55.9882 -3.6892 255° West 314 361 11,000 1,680 Climbing FlightAware UK
07:23AM 55.9780 -3.7140 255° West 321 369 11,200 1,080 Climbing FlightAware
07:23AM 55.9630 -3.8110 255° West 355 409 11,900 1,320 Climbing FlightAware
07:24AM 55.9460 -3.9130 253° West 379 436 12,800 2,100 Climbing FlightAware
07:25AM 55.9270 -4.0370 255° West 385 443 14,500 2,280 Climbing FlightAware
07:25AM 55.9020 -4.1770 252° West 398 458 16,100 2,040 Climbing FlightAware
07:26AM 55.8780 -4.2830 248° West 405 466 17,300 1,920 Climbing FlightAware
07:27AM 55.8490 -4.4140 248° West 413 475 18,600 1,800 Climbing FlightAware
07:27AM 55.8555 -4.4176 248° West 420 483 18,600 1,800 Level FlightAware UK
07:27AM 55.8220 -4.5410 249° West 419 482 19,800 1,800 Climbing FlightAware
07:28AM 55.7970 -4.6580 249° West 426 490 20,900 1,740 Climbing FlightAware
07:29AM 55.7772 -4.7875 249° West 446 513 22,000 1,800 Climbing FlightAware UK
07:29AM 55.7690 -4.7870 249° West 432 497 22,100 1,680 Climbing FlightAware
07:29AM 55.7360 -4.9400 249° West 437 503 23,300 1,500 Climbing FlightAware
07:30AM 55.7073 -5.1073 249° West 460 529 24,500 1,320 Climbing FlightAware UK
07:30AM 55.6920 -5.1360 249° West 448 516 24,600 1,080 Climbing FlightAware
07:31AM 55.6610 -5.2740 248° West 456 525 25,400 1,080 Climbing FlightAware
07:32AM 55.6269 -5.4620 248° West 480 552 26,300 1,080 Climbing FlightAware UK
07:32AM 55.6160 -5.4670 248° West 468 539 26,400 1,260 Climbing FlightAware
07:33AM 55.5720 -5.6560 248° West 474 545 27,500 1,200 Climbing FlightAware
07:33AM 55.5778 -5.6761 248° West 478 550 27,600 1,440 Climbing FlightAware UK
07:33AM 55.5530 -5.7832 248° West 478 550 28,300 1,440 Climbing FlightAware UK
07:34AM 55.5240 -5.8650 248° West 473 544 28,900 1,380 Climbing FlightAware
07:34AM 55.5033 -5.9970 248° West 472 543 29,700 1,200 Climbing FlightAware UK
07:35AM 55.4910 -6.0060 248° West 473 544 29,700 1,200 Level FlightAware
07:35AM 55.4520 -6.1690 247° West 475 547 30,700 1,320 Climbing FlightAware
07:36AM 55.4180 -6.3090 247° West 473 544 31,600 1,200 Climbing FlightAware
07:37AM 55.3973 -6.4460 247° West 468 539 32,300 1,140 Climbing FlightAware UK
07:37AM 55.3830 -6.4540 247° West 471 542 32,400 1,260 Climbing FlightAware
07:37AM 55.3490 -6.5950 247° West 470 541 33,200 1,080 Climbing FlightAware
07:38AM 55.3100 -6.7560 247° West 470 541 34,000 960 Climbing FlightAware
07:38AM 55.3210 -6.7634 247° West 466 536 34,000 900 Level FlightAware UK
07:39AM 55.2953 -6.8686 247° West 464 534 34,500 900 Climbing FlightAware UK
07:39AM 55.2710 -6.9150 247° West 469 540 34,700 540 Climbing FlightAware
07:39AM 55.2370 -7.0530 247° West 474 545 35,000 240 Climbing FlightAware
07:40AM 55.2050 -7.1800 247° West 479 551 35,000  Level FlightAware
07:40AM 55.2177 -7.1856 247° West 470 541 35,000  Level FlightAware UK
07:41AM 55.1914 -7.2917 247° West 468 539 35,000  Level FlightAware UK
07:41AM 55.1670 -7.3350 247° West 475 547 35,000  Level FlightAware
07:41AM 55.1300 -7.4780 246° West 472 543 35,000  Level FlightAware
07:42AM 55.0960 -7.6140 246° West 470 541 35,000  Level FlightAware
07:42AM 55.1079 -7.6255 246° West 460 529 35,000  Level FlightAware UK
07:43AM 55.0819 -7.7290 246° West 460 529 35,000  Level FlightAware UK
07:43AM 55.0550 -7.7750 246° West 468 539 35,000  Level FlightAware
07:44AM 55.0190 -7.9140 246° West 467 537 35,000  Level FlightAware
07:44AM 55.0033 -8.0370 246° West 458 527 35,000  Level FlightAware UK
07:44AM 54.9820 -8.0580 246° West 467 537 35,000  Level FlightAware
07:45AM 54.9400 -8.2190 246° West 466 536 35,000  Level FlightAware
07:46AM 54.9242 -8.3436 246° West 458 527 35,000  Level FlightAware UK
07:46AM 54.9030 -8.3580 246° West 467 537 35,000  Level FlightAware
07:46AM 54.8630 -8.5100 245° Southwest 467 537 35,000  Level FlightAware
07:47AM 54.8320 -8.6300 246° West 468 539 35,000  Level FlightAware
07:48AM 54.7960 -8.7640 246° West 469 540 35,000  Level FlightAware
07:48AM 54.8119 -8.7712 246° West 460 529 35,000  Level FlightAware UK
07:48AM 54.7847 -8.8732 246° West 462 532 35,000  Level FlightAware UK
07:48AM 54.7540 -8.9200 246° West 467 537 35,000  Level FlightAware
07:49AM 54.7180 -9.0550 245° Southwest 468 539 35,000  Level FlightAware
07:50AM 54.6810 -9.1920 245° Southwest 469 540 35,000  Level FlightAware
07:50AM 54.6440 -9.3270 245° Southwest 469 540 35,000  Level FlightAware
07:51AM 54.6020 -9.4780 244° Southwest 470 541 35,000  Level FlightAware
07:52AM 54.5690 -9.6010 245° Southwest 474 545 35,000  Level FlightAware
07:52AM 54.5340 -9.7350 246° West 474 545 35,000  Level FlightAware
07:53AM 54.4930 -9.8920 246° West 474 545 35,000  Level FlightAware
07:54AM 54.4610 -10.0090 245° Southwest 474 545 35,000  Level FlightAware
07:54AM 54.4240 -10.1460 245° Southwest 470 541 35,000  Level FlightAware
07:55AM 54.3870 -10.2830 245° Southwest 470 541 35,000  Level FlightAware
07:56AM 54.3460 -10.4330 245° Southwest 469 540 35,000  Level FlightAware
07:57AM 54.3090 -10.5710 245° Southwest 468 539 35,000  Level FlightAware
07:57AM 54.2680 -10.7190 245° Southwest 466 536 35,000  Level FlightAware
07:58AM 54.2260 -10.8720 245° Southwest 466 536 35,000  Level FlightAware
07:59AM 54.1940 -10.9880 245° Southwest 467 537 35,000  Level FlightAware
07:59AM 54.1560 -11.1210 244° Southwest 466 536 35,000  Level FlightAware
08:00AM 54.1190 -11.2530 244° Southwest 467 537 35,000  Level FlightAware
08:01AM 54.0810 -11.3900 245° Southwest 467 537 35,000  Level FlightAware
08:01AM 54.0440 -11.5200 244° Southwest 467 537 35,000  Level FlightAware
08:02AM 54.0050 -11.6550 244° Southwest 468 539 35,000  Level FlightAware
08:03AM 53.9680 -11.7860 244° Southwest 471 542 35,000  Level FlightAware
08:03AM 53.9250 -11.9350 244° Southwest 470 541 35,000  Level FlightAware
08:04AM 53.8860 -12.0680 244° Southwest 470 541 35,000  Level FlightAware
08:05AM 53.8490 -12.1970 244° Southwest 469 540 35,000  Level FlightAware
08:05AM 53.8100 -12.3290 243° Southwest 470 541 35,000  Level FlightAware
08:06AM 53.7700 -12.4650 244° Southwest 470 541 35,000  Level FlightAware
08:07AM 53.7320 -12.5920 243° Southwest 469 540 35,000  Level FlightAware
08:07AM 53.6880 -12.7400 243° Southwest 469 540 35,000  Level FlightAware
08:08AM 53.6370 -12.9100 243° Southwest 468 539 35,000  Level FlightAware
08:09AM 53.5850 -13.0850 243° Southwest 467 537 35,000  Level FlightAware
08:10AM 53.5440 -13.2190 243° Southwest 467 537 35,000  Level FlightAware
08:11AM 53.4620 -13.4860 243° Southwest 463 533 35,000  Level FlightAware
08:12AM 53.4350 -13.5760 243° Southwest 463 533 35,000  Level FlightAware
08:13AM 53.3750 -13.7680 242° Southwest 462 532 35,000  Level FlightAware
08:13AM 53.3360 -13.8940 243° Southwest 462 532 35,000  Level FlightAware
08:14AM 53.2930 -14.0310 242° Southwest 461 531 35,000  Level FlightAware
08:14AM 53.2820 -14.0670 243° Southwest 461 531 35,000  Level FlightAware
08:16AM 53.2200 -14.2590 242° Southwest 461 531 35,000  Level FlightAware
08:16AM 53.1900 -14.3560 243° Southwest 461 531 35,000  Level FlightAware
08:17AM 53.1490 -14.4840 242° Southwest 461 531 35,000  Level FlightAware
08:18AM 53.1180 -14.5800 242° Southwest 461 531 35,000  Level FlightAware
08:18AM 53.0770 -14.7100 242° Southwest 461 531 35,000  Level FlightAware
08:19AM 53.0460 -14.8060 242° Southwest 461 531 35,000  Level FlightAware
08:20AM 53.0050 -14.9340 242° Southwest 461 531 35,000  Level FlightAware
08:20AM 52.9740 -15.0300 242° Southwest 461 531 35,000  Level FlightAware
08:21AM 52.9340 -15.1570 242° Southwest 461 531 35,000  Level FlightAware
08:22AM 52.9030 -15.2530 242° Southwest 461 531 35,000  Level FlightAware
08:23AM 52.8620 -15.3800 242° Southwest 461 531 35,000  Level FlightAware
08:23AM 52.8310 -15.4750 242° Southwest 461 531 35,000  Level FlightAware
08:24AM 52.7900 -15.6030 242° Southwest 461 531 35,000  Level FlightAware
08:27AM 52.8228 -16.0571 277° West  Level Estimated
08:28AM 52.8358 -16.2439 277° West  Level Estimated
08:29AM 52.8484 -16.4309 276° West  Level Estimated
08:30AM 52.8608 -16.6179 276° West  Level Estimated
08:31AM 52.8729 -16.8050 276° West  Level Estimated
08:32AM 52.8847 -16.9923 276° West  Level Estimated
08:33AM 52.8969 -17.1912 276° West  Level Estimated
08:34AM 52.9088 -17.3901 276° West  Level Estimated
08:35AM 52.9203 -17.5892 276° West  Level Estimated
08:36AM 52.9315 -17.7885 275° West  Level Estimated
08:37AM 52.9424 -17.9878 275° West  Level Estimated
08:38AM 52.9530 -18.1872 275° West  Level Estimated
08:39AM 52.9632 -18.3867 275° West  Level Estimated
08:40AM 52.9730 -18.5863 275° West  Level Estimated
08:41AM 52.9826 -18.7860 275° West  Level Estimated
08:42AM 52.9918 -18.9857 274° West  Level Estimated
08:43AM 53.0006 -19.1856 274° West  Level Estimated
08:44AM 53.0000 -20.0000 274° West 441 507 35,000  Level ETMS Enhanced Traffic Management System
08:44AM 53.0092 -19.3855 274° West  Level Estimated
08:45AM 53.0174 -19.5855 274° West  Level Estimated
08:46AM 53.0252 -19.7856 274° West  Level Estimated
08:47AM 53.0327 -19.9858 274° West  Level Estimated
08:48AM 53.0399 -20.1860 273° West  Level Estimated
08:49AM 53.0468 -20.3863 273° West  Level Estimated
08:50AM 53.0451 -21.2219 273° West 441 507 35,000  Level FlightAware Transoceanic
08:51AM 53.0514 -21.4257 273° West 441 507 35,000  Level FlightAware Transoceanic
08:52AM 53.0573 -21.6297 273° West 441 507 35,000  Level FlightAware Transoceanic
08:53AM 53.0629 -21.8337 273° West 441 507 35,000  Level FlightAware Transoceanic
08:54AM 53.0681 -22.0377 272° West 441 507 35,000  Level FlightAware Transoceanic
08:55AM 53.0730 -22.2418 272° West 441 507 35,000  Level FlightAware Transoceanic
08:56AM 53.0776 -22.4459 272° West 441 507 35,000  Level FlightAware Transoceanic
08:57AM 53.0818 -22.6501 272° West 441 507 35,000  Level FlightAware Transoceanic
08:58AM 53.0856 -22.8543 272° West 441 507 35,000  Level FlightAware Transoceanic
08:59AM 53.0891 -23.0585 272° West 441 507 35,000  Level FlightAware Transoceanic
09:00AM 53.0923 -23.2628 271° West 441 507 35,000  Level FlightAware Transoceanic
09:01AM 53.0951 -23.4671 271° West 441 507 35,000  Level FlightAware Transoceanic
09:02AM 53.0975 -23.6715 271° West 441 507 35,000  Level FlightAware Transoceanic
09:03AM 53.0996 -23.8758 271° West 441 507 35,000  Level FlightAware Transoceanic
09:04AM 53.1014 -24.0802 271° West 441 507 35,000  Level FlightAware Transoceanic
09:05AM 53.1028 -24.2846 271° West 441 507 35,000  Level FlightAware Transoceanic
09:06AM 53.1038 -24.4890 270° West 441 507 35,000  Level FlightAware Transoceanic
09:07AM 53.1045 -24.6934 270° West 441 507 35,000  Level FlightAware Transoceanic
09:08AM 53.1049 -24.8978 270° West 441 507 35,000  Level FlightAware Transoceanic
09:09AM 53.1049 -25.1022 270° West 441 507 35,000  Level FlightAware Transoceanic
09:10AM 53.1045 -25.3066 270° West 441 507 35,000  Level FlightAware Transoceanic
09:11AM 53.1038 -25.5110 270° West 441 507 35,000  Level FlightAware Transoceanic
09:12AM 53.1028 -25.7154 269° West 441 507 35,000  Level FlightAware Transoceanic
09:13AM 53.1014 -25.9198 269° West 441 507 35,000  Level FlightAware Transoceanic
09:14AM 53.0996 -26.1242 269° West 441 507 35,000  Level FlightAware Transoceanic
09:14AM 53.1167 -25.9167 269° West 421 484 35,000  Level ETMS Enhanced Traffic Management System
09:15AM 53.0975 -26.3285 269° West 441 507 35,000  Level FlightAware Transoceanic
09:15AM 53.1000 -26.1333 269° West 418 481 35,000  Level ETMS Enhanced Traffic Management System
09:16AM 53.0951 -26.5329 269° West 441 507 35,000  Level FlightAware Transoceanic
09:17AM 53.0923 -26.7372 269° West 441 507 35,000  Level FlightAware Transoceanic
09:17AM 53.1333 -26.4667 268° West 425 489 35,000  Level ETMS Enhanced Traffic Management System
09:18AM 53.0891 -26.9415 268° West 441 507 35,000  Level FlightAware Transoceanic
09:19AM 53.0856 -27.1457 268° West 441 507 35,000  Level FlightAware Transoceanic
09:20AM 53.0976 -27.0854 268° West 421 484 35,000  Level FlightAware Transoceanic
09:21AM 53.0832 -27.2951 268° West 418 481 35,000  Level FlightAware Transoceanic
09:22AM 53.0793 -27.4886 268° West 418 481 35,000  Level FlightAware Transoceanic
09:23AM 53.1005 -27.6468 267° West 425 489 35,000  Level FlightAware Transoceanic
09:24AM 53.0939 -27.8433 267° West 425 489 35,000  Level FlightAware Transoceanic
09:25AM 53.0870 -28.0397 267° West 425 489 35,000  Level FlightAware Transoceanic
09:26AM 53.0798 -28.2361 266° West 425 489 35,000  Level FlightAware Transoceanic
09:27AM 53.0722 -28.4324 266° West 425 489 35,000  Level FlightAware Transoceanic
09:28AM 53.0643 -28.6286 266° West 425 489 35,000  Level FlightAware Transoceanic
09:29AM 53.0561 -28.8248 266° West 425 489 35,000  Level FlightAware Transoceanic
09:30AM 53.0475 -29.0208 266° West 425 489 35,000  Level FlightAware Transoceanic
09:31AM 53.0387 -29.2168 266° West 425 489 35,000  Level FlightAware Transoceanic
09:32AM 53.0295 -29.4128 265° West 425 489 35,000  Level FlightAware Transoceanic
09:33AM 53.0200 -29.6086 265° West 425 489 35,000  Level FlightAware Transoceanic
09:34AM 53.0102 -29.8043 265° West 425 489 35,000  Level FlightAware Transoceanic
09:35AM 53.0008 -30.0042 266° West  Level Estimated
09:36AM 52.9910 -30.2039 265° West  Level Estimated
09:37AM 52.9810 -30.4036 265° West  Level Estimated
09:38AM 52.9706 -30.6031 265° West  Level Estimated
09:39AM 52.9598 -30.8026 265° West  Level Estimated
09:40AM 52.9488 -31.0019 265° West  Level Estimated
09:41AM 52.9374 -31.2012 265° West  Level Estimated
09:42AM 52.9256 -31.4004 264° West  Level Estimated
09:43AM 52.9136 -31.5994 264° West  Level Estimated
09:44AM 52.9012 -31.7983 264° West  Level Estimated
09:45AM 52.8885 -31.9971 264° West  Level Estimated
09:46AM 52.8754 -32.1958 264° West  Level Estimated
09:47AM 52.8620 -32.3944 264° West  Level Estimated
09:48AM 52.8483 -32.5928 264° West  Level Estimated
09:49AM 52.8342 -32.7912 263° West  Level Estimated
09:50AM 52.8199 -32.9893 263° West  Level Estimated
09:51AM 52.8051 -33.1874 263° West  Level Estimated
09:52AM 52.7901 -33.3853 263° West  Level Estimated
09:53AM 52.7747 -33.5831 263° West  Level Estimated
09:54AM 52.7590 -33.7808 263° West  Level Estimated
09:55AM 52.7430 -33.9783 262° West  Level Estimated
09:56AM 52.7266 -34.1756 262° West  Level Estimated
09:57AM 52.7100 -34.3728 262° West  Level Estimated
09:58AM 52.6930 -34.5699 262° West  Level Estimated
09:59AM 52.6756 -34.7668 262° West  Level Estimated
10:00AM 52.6580 -34.9635 262° West  Level Estimated
10:01AM 52.6400 -35.1601 262° West  Level Estimated
10:02AM 52.6217 -35.3565 261° West  Level Estimated
10:03AM 52.6030 -35.5527 261° West  Level Estimated
10:04AM 52.5840 -35.7488 261° West  Level Estimated
10:05AM 52.5648 -35.9447 261° West  Level Estimated
10:06AM 52.5452 -36.1405 261° West  Level Estimated
10:07AM 52.5252 -36.3360 261° West  Level Estimated
10:08AM 52.5050 -36.5314 260° West  Level Estimated
10:09AM 52.4844 -36.7266 260° West  Level Estimated
10:10AM 52.4635 -36.9216 260° West  Level Estimated
10:11AM 52.4423 -37.1165 260° West  Level Estimated
10:12AM 52.4207 -37.3111 260° West  Level Estimated
10:13AM 52.3989 -37.5056 260° West  Level Estimated
10:14AM 52.3767 -37.6998 259° West  Level Estimated
10:15AM 52.3542 -37.8939 259° West  Level Estimated
10:16AM 52.3314 -38.0877 259° West  Level Estimated
10:17AM 52.3083 -38.2814 259° West  Level Estimated
10:18AM 52.2848 -38.4749 259° West  Level Estimated
10:19AM 52.2611 -38.6681 259° West  Level Estimated
10:20AM 52.2370 -38.8611 259° West  Level Estimated
10:21AM 52.2126 -39.0540 258° West  Level Estimated
10:22AM 52.1879 -39.2466 258° West  Level Estimated
10:23AM 52.1629 -39.4390 258° West  Level Estimated
10:24AM 52.1376 -39.6312 258° West  Level Estimated
10:25AM 52.1119 -39.8232 258° West  Level Estimated
10:26AM 52.0860 -40.0149 258° West  Level Estimated
10:27AM 52.0597 -40.2064 257° West  Level Estimated
10:28AM 52.0331 -40.3977 257° West  Level Estimated
10:29AM 52.0063 -40.5888 257° West  Level Estimated
10:30AM 51.9791 -40.7796 257° West  Level Estimated
10:31AM 51.9516 -40.9702 257° West  Level Estimated
10:32AM 51.9238 -41.1606 257° West  Level Estimated
10:33AM 51.8956 -41.3507 257° West  Level Estimated
10:34AM 51.8672 -41.5406 256° West  Level Estimated
10:35AM 51.8385 -41.7302 256° West  Level Estimated
10:36AM 51.8095 -41.9196 256° West  Level Estimated
10:37AM 51.7802 -42.1088 256° West  Level Estimated
10:38AM 51.7505 -42.2977 256° West  Level Estimated
10:39AM 51.7206 -42.4864 256° West  Level Estimated
10:40AM 51.6903 -42.6748 256° West  Level Estimated
10:41AM 51.6598 -42.8629 255° West  Level Estimated
10:42AM 51.6289 -43.0508 255° West  Level Estimated
10:43AM 51.5978 -43.2385 255° West  Level Estimated
10:44AM 51.5664 -43.4259 255° West  Level Estimated
10:45AM 51.5346 -43.6130 255° West  Level Estimated
10:46AM 51.5026 -43.7999 255° West  Level Estimated
10:47AM 51.4703 -43.9865 255° West  Level Estimated
10:48AM 51.4376 -44.1728 254° West  Level Estimated
10:49AM 51.4047 -44.3589 254° West  Level Estimated
10:50AM 51.3715 -44.5447 254° West  Level Estimated
10:51AM 51.3380 -44.7302 254° West  Level Estimated
10:52AM 51.3042 -44.9155 254° West  Level Estimated
10:53AM 51.2701 -45.1005 254° West  Level Estimated
10:54AM 51.2357 -45.2852 254° West  Level Estimated
10:55AM 51.2010 -45.4696 253° West  Level Estimated
10:56AM 51.1661 -45.6538 253° West  Level Estimated
10:57AM 51.1308 -45.8377 253° West  Level Estimated
10:58AM 51.0953 -46.0213 253° West  Level Estimated
10:59AM 51.0594 -46.2046 253° West  Level Estimated
11:00AM 51.0233 -46.3876 253° West  Level Estimated
11:01AM 50.9873 -46.5683 253° West  Level Estimated
11:02AM 50.9511 -46.7487 252° West  Level Estimated
11:03AM 50.9145 -46.9289 252° West  Level Estimated
11:04AM 50.8777 -47.1088 252° West  Level Estimated
11:05AM 50.8406 -47.2883 252° West  Level Estimated
11:06AM 50.8032 -47.4676 252° West  Level Estimated
11:07AM 50.7655 -47.6466 252° West  Level Estimated
11:08AM 50.7276 -47.8254 252° West  Level Estimated
11:09AM 50.6894 -48.0038 251° West  Level Estimated
11:10AM 50.6510 -48.1819 251° West  Level Estimated
11:11AM 50.6122 -48.3598 251° West  Level Estimated
11:12AM 50.5732 -48.5373 251° West  Level Estimated
11:13AM 50.5339 -48.7146 251° West  Level Estimated
11:14AM 50.4944 -48.8916 251° West  Level Estimated
11:15AM 50.4546 -49.0682 251° West  Level Estimated
11:16AM 50.4145 -49.2446 250° West  Level Estimated
11:17AM 50.3741 -49.4207 250° West  Level Estimated
11:18AM 50.3335 -49.5964 250° West  Level Estimated
11:19AM 50.2926 -49.7719 250° West  Level Estimated
11:20AM 50.2515 -49.9471 250° West  Level Estimated
11:21AM 50.2100 -50.1219 250° West  Level Estimated
11:22AM 50.1684 -50.2965 250° West  Level Estimated
11:23AM 50.1264 -50.4707 249° West  Level Estimated
11:24AM 50.0843 -50.6447 249° West  Level Estimated
11:25AM 50.0418 -50.8183 249° West  Level Estimated
11:26AM 49.9991 -50.9916 249° West  Level Estimated
11:27AM 49.9561 -51.1647 249° West  Level Estimated
11:28AM 49.9129 -51.3374 249° West  Level Estimated
11:29AM 49.8694 -51.5098 249° West  Level Estimated
11:30AM 49.8257 -51.6818 249° West  Level Estimated
11:30AM 47.9000 -50.7010 248° West 35,000  Level FlightAware
11:30AM 47.8800 -50.8140 255° West 454 522 35,000  Level FlightAware
11:31AM 49.7817 -51.8535 248° West  Level Estimated
11:31AM 47.8550 -50.9510 255° West 455 524 35,000  Level FlightAware
11:32AM 47.8280 -51.0780 252° West 454 522 35,000  Level FlightAware
11:32AM 47.8080 -51.1690 252° West 454 522 35,000  Level FlightAware
11:33AM 47.7760 -51.3370 254° West 456 525 35,000  Level FlightAware
11:34AM 47.7500 -51.4630 253° West 456 525 35,000  Level FlightAware
11:35AM 47.7240 -51.5890 253° West 457 526 35,000  Level FlightAware
11:35AM 47.6980 -51.7150 253° West 456 525 35,000  Level FlightAware
11:36AM 47.6750 -51.8230 252° West 456 525 35,000  Level FlightAware
11:37AM 47.6500 -51.9410 253° West 457 526 35,000  Level FlightAware
11:37AM 47.6300 -52.0370 253° West 459 528 35,000 240 Level FlightAware
11:38AM 47.6070 -52.1460 253° West 461 531 35,300 900 Climbing FlightAware
11:38AM 47.5810 -52.2640 252° West 458 527 36,200 1,380 Climbing FlightAware
11:39AM 47.5540 -52.3880 252° West 454 522 37,200 1,200 Climbing FlightAware
11:40AM 47.5280 -52.5060 252° West 452 520 37,900 540 Climbing FlightAware
11:40AM 47.5000 -52.6380 253° West 458 527 38,000 60 Climbing FlightAware
11:41AM 47.4730 -52.7550 251° West 454 522 38,000  Level FlightAware
11:42AM 47.4430 -52.8900 252° West 451 519 38,000  Level FlightAware
11:43AM 47.4160 -53.0130 252° West 449 517 38,000  Level FlightAware
11:43AM 47.3910 -53.1250 252° West 448 516 38,000  Level FlightAware
11:44AM 47.3620 -53.2530 252° West 448 516 38,000  Level FlightAware
11:45AM 47.3340 -53.3730 251° West 449 517 38,000  Level FlightAware
11:45AM 47.3070 -53.4920 252° West 450 518 38,000  Level FlightAware
11:46AM 47.2790 -53.6110 251° West 453 521 38,000  Level FlightAware
11:47AM 47.2500 -53.7360 251° West 453 521 38,000  Level FlightAware
11:47AM 47.2200 -53.8620 251° West 455 524 38,000  Level FlightAware
11:48AM 47.1940 -53.9740 251° West 454 522 38,000  Level FlightAware
11:49AM 47.1630 -54.1030 251° West 455 524 38,000  Level FlightAware
11:50AM 47.1320 -54.2310 250° West 455 524 38,000  Level FlightAware
11:50AM 47.1100 -54.3250 251° West 457 526 38,000  Level FlightAware
11:51AM 47.0790 -54.4530 250° West 457 526 38,000  Level FlightAware
11:51AM 47.0520 -54.5640 250° West 457 526 38,000  Level FlightAware
11:52AM 47.0260 -54.6690 250° West 458 527 38,000  Level FlightAware
11:53AM 46.9960 -54.7910 250° West 458 527 38,000  Level FlightAware
11:53AM 46.9640 -54.9180 250° West 459 528 38,000  Level FlightAware
11:54AM 46.9340 -55.0380 250° West 460 529 38,000  Level FlightAware
11:55AM 46.9020 -55.1690 250° West 461 531 38,000  Level FlightAware
11:56AM 46.8720 -55.2850 249° West 461 531 38,000  Level FlightAware
11:56AM 46.8430 -55.4020 250° West 461 531 38,000  Level FlightAware
11:57AM 46.8140 -55.5150 249° West 461 531 38,000  Level FlightAware
11:58AM 46.7850 -55.6280 249° West 460 529 38,000  Level FlightAware
11:58AM 46.7520 -55.7560 249° West 458 527 38,000  Level FlightAware
11:59AM 46.7250 -55.8610 249° West 457 526 38,000  Level FlightAware
12:00PM 46.6930 -55.9830 249° West 456 525 38,000  Level FlightAware
12:00PM 46.6620 -56.1000 249° West 456 525 38,000  Level FlightAware
12:01PM 46.6260 -56.2360 249° West 455 524 38,000  Level FlightAware
12:02PM 46.5970 -56.3450 249° West 455 524 38,000  Level FlightAware
12:03PM 46.5540 -56.5070 249° West 455 524 38,000  Level FlightAware
12:04PM 46.5120 -56.6620 249° West 456 525 38,000  Level FlightAware
12:04PM 46.4700 -56.8170 249° West 454 522 38,000  Level FlightAware
12:05PM 46.4450 -56.9090 249° West 454 522 38,000  Level FlightAware
12:06PM 46.4080 -57.0460 249° West 455 524 38,000  Level FlightAware
12:07PM 46.3680 -57.1900 248° West 455 524 38,000  Level FlightAware
12:08PM 46.3300 -57.3270 248° West 455 524 38,000  Level FlightAware
12:08PM 46.2980 -57.4420 248° West 455 524 38,000  Level FlightAware
12:09PM 46.2720 -57.5330 248° West 455 524 38,000  Level FlightAware
12:10PM 46.2320 -57.6770 248° West 455 524 38,000  Level FlightAware
12:11PM 46.1650 -57.9110 248° West 452 520 38,000  Level FlightAware
12:12PM 46.1270 -58.0480 248° West 452 520 38,000  Level FlightAware
12:12PM 46.0940 -58.1640 248° West 451 519 38,000  Level FlightAware
12:13PM 46.0610 -58.2800 248° West 451 519 38,000  Level FlightAware
12:14PM 46.0250 -58.4030 247° West 451 519 38,000  Level FlightAware
12:15PM 45.9930 -58.5140 247° West 450 518 38,000  Level FlightAware
12:15PM 45.9580 -58.6340 247° West 450 518 38,000  Level FlightAware
12:16PM 45.9250 -58.7490 248° West 450 518 38,000  Level FlightAware
12:17PM 45.8940 -58.8540 247° West 450 518 38,000  Level FlightAware
12:17PM 45.8580 -58.9750 247° West 450 518 38,000  Level FlightAware
12:18PM 45.8230 -59.0950 247° West 450 518 38,000  Level FlightAware
12:19PM 45.7880 -59.2120 247° West 451 519 38,000  Level FlightAware
12:19PM 45.7590 -59.3100 247° West 451 519 38,000  Level FlightAware
12:20PM 45.7260 -59.4200 247° West 451 519 38,000  Level FlightAware
12:21PM 45.6930 -59.5300 247° West 451 519 38,000  Level FlightAware
12:21PM 45.6570 -59.6490 247° West 452 520 38,000  Level FlightAware
12:22PM 45.6230 -59.7600 246° West 452 520 38,000  Level FlightAware
12:23PM 45.5850 -59.8860 247° West 453 521 38,000  Level FlightAware
12:24PM 45.5530 -59.9920 247° West 452 520 38,000  Level FlightAware
12:24PM 45.5190 -60.1020 246° West 452 520 38,000  Level FlightAware
12:25PM 45.4890 -60.1990 246° West 451 519 38,000  Level FlightAware
12:26PM 45.4550 -60.3090 246° West 452 520 38,000  Level FlightAware
12:26PM 45.4180 -60.4300 246° West 452 520 38,000  Level FlightAware
12:27PM 45.3810 -60.5480 246° West 451 519 38,000  Level FlightAware
12:28PM 45.3470 -60.6570 246° West 451 519 38,000  Level FlightAware
12:28PM 45.3170 -60.7560 247° West 451 519 38,000  Level FlightAware
12:29PM 45.2800 -60.8730 246° West 451 519 38,000  Level FlightAware
12:30PM 45.2530 -60.9590 246° West 451 519 38,000  Level FlightAware
12:30PM 45.2270 -61.0410 246° West 451 519 38,000  Level FlightAware
12:31PM 45.2000 -61.1270 246° West 451 519 38,000  Level FlightAware
12:32PM 45.1380 -61.3240 246° West 451 519 38,000  Level FlightAware
12:33PM 45.1120 -61.4070 246° West 451 519 38,000  Level FlightAware
12:34PM 45.0760 -61.5220 246° West 451 519 38,000  Level FlightAware
12:35PM 45.0420 -61.6320 246° West 451 519 38,000  Level FlightAware
12:35PM 45.0150 -61.7160 246° West 451 519 38,000  Level FlightAware
12:36PM 44.9880 -61.8010 246° West 451 519 38,000  Level FlightAware
12:36PM 44.9610 -61.8860 246° West 451 519 38,000  Level FlightAware
12:37PM 44.9270 -61.9960 246° West 451 519 38,000  Level FlightAware
12:38PM 44.9020 -62.0740 246° West 451 519 38,000  Level FlightAware
12:39PM 44.7450 -62.5300 244° Southwest 38,000  Level FlightAware
12:41PM 44.6710 -62.7540 245° Southwest 38,000  Level FlightAware
12:42PM 44.6320 -62.8690 245° Southwest 436 502 38,000  Level FlightAware
12:42PM 44.5920 -62.9880 245° Southwest 437 503 38,000  Level FlightAware
12:43PM 44.5580 -63.0870 244° Southwest 437 503 38,000  Level FlightAware
12:44PM 44.5210 -63.1990 245° Southwest 437 503 38,000  Level FlightAware
12:45PM 44.4850 -63.3020 244° Southwest 438 504 38,000  Level FlightAware
12:45PM 44.4440 -63.4230 245° Southwest 438 504 38,000  Level FlightAware
12:46PM 44.4070 -63.5310 244° Southwest 437 503 38,000  Level FlightAware
12:47PM 44.3780 -63.6170 245° Southwest 437 503 38,000  Level FlightAware
12:47PM 44.3350 -63.7390 244° Southwest 437 503 38,000  Level FlightAware
12:48PM 44.2980 -63.8480 245° Southwest 438 504 38,000  Level FlightAware
12:49PM 44.2660 -63.9380 244° Southwest 438 504 38,000  Level FlightAware
12:49PM 44.2240 -64.0570 244° Southwest 438 504 38,000  Level FlightAware
12:50PM 44.1930 -64.1480 245° Southwest 439 505 38,000  Level FlightAware
12:51PM 44.1600 -64.2390 243° Southwest 439 505 38,000  Level FlightAware
12:51PM 44.1190 -64.3580 244° Southwest 440 506 38,000  Level FlightAware
12:52PM 44.0930 -64.4300 243° Southwest 439 505 38,000  Level FlightAware
12:53PM 44.0510 -64.5460 243° Southwest 38,000  Level FlightAware
12:54PM 43.9970 -64.6990 244° Southwest 440 506 38,000  Level FlightAware
12:54PM 43.9670 -64.7820 243° Southwest 439 505 38,000  Level FlightAware
12:55PM 43.9230 -64.9030 243° Southwest 439 505 38,000  Level FlightAware
12:56PM 43.8820 -65.0150 243° Southwest 440 506 38,000  Level FlightAware
12:56PM 43.8460 -65.1140 243° Southwest 440 506 38,000  Level FlightAware
12:57PM 43.8140 -65.2020 243° Southwest 437 503 38,000  Level FlightAware
12:58PM 43.7860 -65.2800 244° Southwest 437 503 38,000  Level FlightAware
12:58PM 43.7490 -65.3790 243° Southwest 437 503 38,000  Level FlightAware
12:59PM 43.7080 -65.4910 243° Southwest 437 503 38,000  Level FlightAware
01:00PM 43.6690 -65.5950 243° Southwest 436 502 38,000  Level FlightAware
01:00PM 43.6330 -65.6940 243° Southwest 436 502 38,000  Level FlightAware
01:01PM 43.5900 -65.8060 242° Southwest 436 502 38,000  Level FlightAware
01:02PM 43.5530 -65.9050 243° Southwest 436 502 38,000  Level FlightAware
01:02PM 43.5210 -65.9910 243° Southwest 436 502 38,000  Level FlightAware
01:03PM 43.4780 -66.1040 242° Southwest 436 502 38,000  Level FlightAware
01:04PM 43.4450 -66.1910 242° Southwest 436 502 38,000  Level FlightAware
01:04PM 43.4000 -66.3100 243° Southwest 436 502 38,000  Level FlightAware
01:05PM 43.3560 -66.4250 242° Southwest 438 504 38,000  Level FlightAware
01:06PM 43.3170 -66.5280 243° Southwest 438 504 38,000  Level FlightAware
01:07PM 43.2890 -66.6040 243° Southwest 438 504 38,000  Level FlightAware
01:08PM 43.2090 -66.8040 241° Southwest 443 510 38,000  Level FlightAware
01:09PM 43.1760 -66.8860 241° Southwest 443 510 38,000  Level FlightAware
01:09PM 43.1450 -66.9620 241° Southwest 443 510 38,000  Level FlightAware
01:10PM 43.1060 -67.1370 253° West 445 512 38,000  Level FlightAware
01:10PM 43.0950 -67.1930 255° West 445 512 38,000  Level FlightAware
01:11PM 43.0760 -67.2900 255° West 445 512 38,000  Level FlightAware
01:12PM 43.0580 -67.3830 255° West 445 512 38,000  Level FlightAware
01:13PM 43.0210 -67.6070 257° West 38,000  Level FlightAware
01:13PM 43.0000 -67.7210 256° West 442 509 38,000  Level FlightAware
01:14PM 42.9780 -67.8390 256° West 441 507 38,000  Level FlightAware
01:15PM 42.9550 -67.9600 255° West 440 506 38,000  Level FlightAware
01:16PM 42.9340 -68.0710 256° West 438 504 38,000  Level FlightAware
01:16PM 42.9140 -68.1780 256° West 439 505 38,000  Level FlightAware
01:17PM 42.8930 -68.2840 255° West 438 504 38,000  Level FlightAware
01:18PM 42.8730 -68.3890 255° West 437 503 38,000  Level FlightAware
01:18PM 42.8520 -68.4980 255° West 435 501 38,000  Level FlightAware
01:19PM 42.8310 -68.6050 255° West 433 498 38,000  Level FlightAware
01:20PM 42.8100 -68.7110 255° West 431 496 38,000  Level FlightAware
01:20PM 42.7870 -68.8270 255° West 429 494 38,000  Level FlightAware
01:21PM 42.7590 -68.9700 255° West 429 494 38,000  Level FlightAware
01:22PM 42.7350 -69.0870 254° West 428 493 38,000  Level FlightAware
01:23PM 42.7170 -69.1780 255° West 429 494 38,000  Level FlightAware
01:23PM 42.6930 -69.2970 255° West 428 493 38,000  Level FlightAware
01:24PM 42.6720 -69.3990 254° West 428 493 38,000  Level FlightAware
01:25PM 42.6480 -69.5140 254° West 428 493 38,000  Level FlightAware
01:26PM 42.6240 -69.6310 254° West 427 491 38,000  Level FlightAware
01:26PM 42.6030 -69.7320 254° West 427 491 38,000 -120 Level FlightAware
01:27PM 42.5810 -69.8370 254° West 423 487 37,900 -900 Descending FlightAware
01:28PM 42.5580 -69.9480 254° West 425 489 36,800 -2,040 Descending FlightAware
01:28PM 42.5350 -70.0560 254° West 429 494 35,000 -2,760 Descending FlightAware
01:29PM 42.5140 -70.1570 254° West 431 496 33,100 -3,000 Descending FlightAware
01:30PM 42.4880 -70.2780 254° West 434 499 30,800 -2,760 Descending FlightAware
01:30PM 42.4650 -70.3830 253° West 426 490 29,200 -2,040 Descending FlightAware
01:31PM 42.4440 -70.4820 254° West 417 480 28,100 -1,380 Descending FlightAware
01:32PM 42.4190 -70.5960 253° West 407 468 27,300 -960 Descending FlightAware
01:32PM 42.3980 -70.6920 254° West 407 468 26,800 -780 Descending FlightAware
01:33PM 42.3770 -70.7890 254° West 409 471 26,300 -900 Descending FlightAware
01:34PM 42.3520 -70.9000 253° West 408 470 25,600 -1,320 Descending FlightAware
01:35PM 42.3310 -70.9940 253° West 399 459 24,500 -1,740 Descending FlightAware
01:35PM 42.3070 -71.0980 253° West 385 443 23,200 -1,680 Descending FlightAware
01:36PM 42.2870 -71.1810 252° West 383 441 22,300 -900 Descending FlightAware
01:37PM 42.2620 -71.2840 252° West 379 436 22,000 -360 Descending FlightAware
01:38PM 42.2320 -71.4060 252° West 377 434 21,700 -360 Descending FlightAware
01:38PM 42.2150 -71.4780 252° West 376 433 21,500 -420 Descending FlightAware
01:39PM 42.1830 -71.6060 251° West 373 429 21,100 -420 Descending FlightAware
01:40PM 42.1620 -71.6940 252° West 374 430 20,900 -420 Descending FlightAware
01:40PM 42.1400 -71.7820 251° West 372 428 20,600 -420 Descending FlightAware
01:41PM 42.1170 -71.8730 251° West 372 428 20,400 -300 Descending FlightAware
01:42PM 42.0890 -71.9830 251° West 372 428 20,200 -420 Descending FlightAware
01:43PM 42.1430 -71.7710 71° East 373 429 19,800 -660 Descending FlightAware
01:43PM 42.1420 -71.7730 236° Southwest 373 429 19,200 -420 Descending FlightAware
01:44PM 42.1220 -71.8600 253° West 373 429 19,200  Level FlightAware
01:45PM 42.1000 -71.9500 252° West 373 429 19,200  Level FlightAware
01:46PM 42.0830 -72.0180 251° West 373 429 19,200  Level FlightAware
01:46PM 42.0670 -72.0850 252° West 373 429 19,200 -1,860 Level FlightAware
01:47PM 41.9458 -72.6717 252° West 370 426 16,000 -1,500 Descending Boston Center
01:48PM 41.9164 -72.7972 253° West 370 426 16,000  Level Boston Center
01:54PM 41.6930 -73.5820 253° West 364 419 16,100  Climbing FlightAware
01:55PM 41.6710 -73.6730 252° West 363 418 16,000 -720 Descending FlightAware
01:56PM 41.6470 -73.7680 251° West 360 414 15,100 -1,200 Descending FlightAware
01:56PM 41.6432 -73.7851 253° West 359 413 15,000 -1,260 Descending FlightAware ADS-B
01:56PM 41.6250 -73.8583 252° West 359 413 14,200 -1,260 Descending FlightAware ADS-B
01:57PM 41.6082 -73.9239 251° West 353 406 13,600 -1,200 Descending FlightAware ADS-B
01:57PM 41.6013 -73.9418 243° Southwest 354 407 13,400 -120 Descending FlightAware ADS-B
01:58PM 41.5830 -74.0110 251° West 353 406 13,500 60 Climbing FlightAware
01:58PM 41.5660 -74.0700 249° West 353 406 13,500 -2,400 Level FlightAware
02:00PM 41.4570 -74.1580 211° Southwest 297 342 9,500 -3,360 Descending FlightAware
02:00PM 41.4420 -74.1830 231° Southwest 288 331 8,900 -840 Descending FlightAware
02:00PM 41.4210 -74.2150 229° Southwest 288 331 8,900 -360 Level FlightAware
02:05PM 41.1310 -74.5060 217° Southwest 273 314 7,100 -360 Descending FlightAware
02:05PM 41.1170 -74.5120 198° South 274 315 7,100  Level FlightAware
02:06PM 41.0885 -74.5237 197° South 270 311 7,100  Level FlightAware ADS-B
02:06PM 41.0672 -74.5325 197° South 236 272 7,100  Level FlightAware ADS-B
02:06PM 41.0545 -74.5378 197° South 232 267 7,100  Level FlightAware ADS-B
02:06PM 41.0489 -74.5402 198° South 229 264 7,100  Level FlightAware ADS-B
02:07PM 41.0276 -74.5460 192° South 230 265 7,100  Level FlightAware ADS-B
02:07PM 41.0022 -74.5484 184° South 238 274 7,100  Level FlightAware ADS-B
02:07PM 40.9816 -74.5502 184° South 233 268 7,100 -300 Level FlightAware ADS-B
02:08PM 40.9524 -74.5545 186° South 230 265 6,900 -900 Descending FlightAware ADS-B
02:08PM 40.9230 -74.5634 193° South 227 261 6,300 -1,140 Descending FlightAware ADS-B
02:09PM 40.9079 -74.5683 194° South 224 258 6,100 -780 Descending FlightAware ADS-B
02:09PM 40.9069 -74.5687 197° South 225 259 6,100  Level FlightAware ADS-B
02:09PM 40.8913 -74.5740 194° South 233 268 6,100  Level FlightAware ADS-B
02:09PM 40.8894 -74.5747 196° South 233 268 6,100  Level FlightAware ADS-B
02:09PM 40.8708 -74.5809 194° South 232 267 6,100  Level FlightAware ADS-B
02:10PM 40.8525 -74.5869 194° South 230 265 6,100  Level FlightAware ADS-B
02:10PM 40.8302 -74.5939 193° South 230 265 6,100  Level FlightAware ADS-B
02:10PM 40.8075 -74.6013 194° South 230 265 6,100  Level FlightAware ADS-B
02:11PM 40.7843 -74.6088 194° South 230 265 6,100  Level FlightAware ADS-B
02:11PM 40.7670 -74.6149 195° South 237 273 6,100  Level FlightAware ADS-B
02:11PM 40.7493 -74.6210 195° South 233 268 6,100  Level FlightAware ADS-B
02:11PM 40.7333 -74.6266 195° South 233 268 6,100  Level FlightAware ADS-B
02:12PM 40.7136 -74.6334 195° South 233 268 6,100  Level FlightAware ADS-B
02:12PM 40.6977 -74.6389 195° South 235 270 6,100  Level FlightAware ADS-B
02:12PM 40.6774 -74.6456 194° South 233 268 6,100  Level FlightAware ADS-B
02:13PM 40.6604 -74.6511 194° South 234 269 6,100  Level FlightAware ADS-B
02:13PM 40.6152 -74.6695 197° South 230 265 6,100  Level FlightAware ADS-B
02:13PM 40.6110 -74.6720 204° Southwest 229 264 6,100  Level FlightAware ADS-B
02:14PM 40.5816 -74.6904 205° Southwest 228 262 6,100  Level FlightAware ADS-B
02:14PM 40.5613 -74.7026 205° Southwest 228 262 6,100  Level FlightAware ADS-B
02:14PM 40.5540 -74.7042 189° South 230 265 6,100  Level FlightAware ADS-B
02:15PM 40.5491 -74.7043 181° South 231 266 6,100  Level FlightAware ADS-B
02:15PM 40.5234 -74.7021 176° South 235 270 6,100  Level FlightAware ADS-B
02:15PM 40.5068 -74.7002 175° South 234 269 6,100  Level FlightAware ADS-B
02:15PM 40.4855 -74.6979 175° South 236 272 6,100  Level FlightAware ADS-B
02:16PM 40.4681 -74.6959 175° South 239 275 6,100  Level FlightAware ADS-B
02:16PM 40.4517 -74.6942 175° South 236 272 6,100  Level FlightAware ADS-B
02:16PM 40.4347 -74.6925 176° South 237 273 6,100 -240 Level FlightAware ADS-B
02:17PM 40.4183 -74.6907 175° South 235 270 6,000 -600 Descending FlightAware ADS-B
02:17PM 40.4017 -74.6891 176° South 235 270 5,800 -1,020 Descending FlightAware ADS-B
02:17PM 40.3852 -74.6873 175° South 235 270 5,500 -1,140 Descending FlightAware ADS-B
02:17PM 40.3785 -74.6865 175° South 235 270 5,400 -600 Descending FlightAware ADS-B
02:17PM 40.3748 -74.6856 170° South 235 270 5,400 -780 Level FlightAware ADS-B
02:17PM 40.3701 -74.6839 165° South 235 270 5,300 -720 Descending FlightAware ADS-B
02:17PM 40.3658 -74.6812 154° Southeast 235 270 5,300 -780 Level FlightAware ADS-B
02:17PM 40.3622 -74.6780 146° Southeast 234 269 5,200 -1,380 Descending FlightAware ADS-B
02:17PM 40.3581 -74.6729 137° Southeast 234 269 5,100 -600 Descending FlightAware ADS-B
02:18PM 40.3552 -74.6672 124° Southeast 233 268 5,100  Level FlightAware ADS-B
02:18PM 40.3528 -74.6610 117° Southeast 232 267 5,100  Level FlightAware ADS-B
02:18PM 40.3493 -74.6482 110° East 235 270 5,100  Level FlightAware ADS-B
02:18PM 40.3440 -74.6274 108° East 234 269 5,100  Level FlightAware ADS-B
02:18PM 40.3391 -74.6075 108° East 214 246 5,100  Level FlightAware ADS-B
02:19PM 40.3344 -74.5886 108° East 199 229 5,100  Level FlightAware ADS-B
02:19PM 40.3299 -74.5711 109° East 196 226 5,100 -240 Level FlightAware ADS-B
02:19PM 40.3253 -74.5527 108° East 191 220 5,000 -780 Descending FlightAware ADS-B
02:19PM 40.3207 -74.5344 108° East 187 215 4,700 -1,140 Descending FlightAware ADS-B
02:20PM 40.3166 -74.5179 108° East 186 214 4,400 -960 Descending FlightAware ADS-B
02:20PM 40.3140 -74.5069 107° East 186 214 4,300 -960 Descending FlightAware ADS-B
02:20PM 40.3098 -74.4902 108° East 186 214 4,000 -1,380 Descending FlightAware ADS-B
02:20PM 40.3083 -74.4828 105° East 186 214 3,800 -1,440 Descending FlightAware ADS-B
02:20PM 40.3082 -74.4756 91° East 183 211 3,700 -900 Descending FlightAware ADS-B
02:21PM 40.3099 -74.4597 82° East 182 209 3,500 -1,020 Descending FlightAware ADS-B
02:21PM 40.3123 -74.4427 80° East 182 209 3,200 -1,020 Descending FlightAware ADS-B
02:21PM 40.3136 -74.4337 79° East 180 207 3,100 -480 Descending FlightAware ADS-B
02:21PM 40.3148 -74.4278 75° East 180 207 3,100  Level FlightAware ADS-B
02:21PM 40.3190 -74.4185 59° Northeast 183 211 3,100  Level FlightAware ADS-B
02:21PM 40.3231 -74.4121 50° Northeast 183 211 3,100  Level FlightAware ADS-B
02:22PM 40.3308 -74.4010 48° Northeast 186 214 3,100  Level FlightAware ADS-B
02:22PM 40.3329 -74.3979 48° Northeast 186 214 3,100  Level FlightAware ADS-B
02:22PM 40.3399 -74.3874 49° Northeast 181 208 3,100  Level FlightAware ADS-B
02:22PM 40.3418 -74.3847 47° Northeast 180 207 3,100  Level FlightAware ADS-B
02:22PM 40.3493 -74.3742 47° Northeast 178 205 3,100  Level FlightAware ADS-B
02:22PM 40.3643 -74.3610 34° Northeast 179 206 3,100  Level FlightAware ADS-B
02:23PM 40.3653 -74.3600 37° Northeast 179 206 3,100  Level FlightAware ADS-B
02:23PM 40.3761 -74.3524 28° Northeast 179 206 3,100  Level FlightAware ADS-B
02:23PM 40.3866 -74.3459 25° Northeast 178 205 3,100  Level FlightAware ADS-B
02:23PM 40.3976 -74.3392 25° Northeast 178 205 3,100  Level FlightAware ADS-B
02:24PM 40.4113 -74.3314 23° Northeast 180 207 3,100  Level FlightAware ADS-B
02:24PM 40.4410 -74.3130 25° Northeast 178 205 3,100  Level FlightAware
02:24PM 40.4530 -74.3060 24° Northeast 177 204 3,100  Level FlightAware
02:25PM 40.4720 -74.2940 26° Northeast 178 205 3,100  Level FlightAware
02:25PM 40.4850 -74.2860 25° Northeast 179 206 3,100  Level FlightAware
02:26PM 40.5030 -74.2760 23° Northeast 176 203 3,100  Level FlightAware
02:26PM 40.5159 -74.2673 27° Northeast 183 211 3,100 -240 Level FlightAware ADS-B
02:26PM 40.5296 -74.2589 25° Northeast 179 206 3,000 -540 Descending FlightAware ADS-B
02:26PM 40.5416 -74.2515 25° Northeast 182 209 2,800 -780 Descending FlightAware ADS-B
02:27PM 40.5531 -74.2444 25° Northeast 181 208 2,600 -1,020 Descending FlightAware ADS-B
02:27PM 40.5689 -74.2348 25° Northeast 183 211 2,200 -1,020 Descending FlightAware ADS-B
02:27PM 40.5807 -74.2274 25° Northeast 183 211 2,000 -840 Descending FlightAware ADS-B
02:28PM 40.5963 -74.2180 25° Northeast 176 203 1,700 -1,020 Descending FlightAware ADS-B
02:28PM 40.6075 -74.2111 25° Northeast 165 190 1,400 -1,020 Descending FlightAware ADS-B
02:28PM 40.6178 -74.2050 24° Northeast 153 176 1,200 -720 Descending FlightAware ADS-B
02:28PM 40.6250 -74.2005 25° Northeast 145 167 1,100 -720 Descending FlightAware ADS-B
02:29PM 40.6343 -74.1950 24° Northeast 136 157 900 -780 Descending FlightAware ADS-B
02:29PM 40.6434 -74.1895 25° Northeast 137 158 700 -840 Descending FlightAware ADS-B
02:29PM 40.6517 -74.1845 25° Northeast 140 161 500 -840 Descending FlightAware ADS-B
02:29PM 40.6606 -74.1792 24° Northeast 136 157 300 -600 Descending FlightAware ADS-B
02:30PM 40.6698 -74.1737 24° Northeast 141 162 200 -420 Descending FlightAware ADS-B